sensor_id;sensor_type;location;lat;lon;timestamp;P1;durP1;ratioP1;P2;durP2;ratioP2
57441;SDS011;43284;47.042;15.498;2022-12-18T00:01:04;22.58;;;10.63;;
57441;SDS011;43284;47.042;15.498;2022-12-18T00:03:34;32.38;;;12.15;;
57441;SDS011;43284;47.042;15.498;2022-12-18T00:06:00;22.52;;;10.80;;
57441;SDS011;43284;47.042;15.498;2022-12-18T00:08:26;22.63;;;10.60;;
57441;SDS011;43284;47.042;15.498;2022-12-18T00:10:53;23.58;;;9.88;;
57441;SDS011;43284;47.042;15.498;2022-12-18T00:13:19;25.98;;;10.00;;
57441;SDS011;43284;47.042;15.498;2022-12-18T00:15:44;22.83;;;9.73;;
57441;SDS011;43284;47.042;15.498;2022-12-18T00:18:10;18.83;;;9.07;;
57441;SDS011;43284;47.042;15.498;2022-12-18T00:20:39;20.02;;;9.25;;
57441;SDS011;43284;47.042;15.498;2022-12-18T00:23:05;20.42;;;8.95;;
57441;SDS011;43284;47.042;15.498;2022-12-18T00:25:35;22.40;;;8.95;;
57441;SDS011;43284;47.042;15.498;2022-12-18T00:28:01;16.00;;;8.88;;
57441;SDS011;43284;47.042;15.498;2022-12-18T00:30:28;20.35;;;8.32;;
57441;SDS011;43284;47.042;15.498;2022-12-18T00:32:54;19.52;;;8.45;;
57441;SDS011;43284;47.042;15.498;2022-12-18T00:35:19;20.17;;;8.02;;
57441;SDS011;43284;47.042;15.498;2022-12-18T00:37:45;17.27;;;7.97;;
57441;SDS011;43284;47.042;15.498;2022-12-18T00:40:10;19.70;;;7.82;;
57441;SDS011;43284;47.042;15.498;2022-12-18T00:42:36;15.70;;;8.18;;
57441;SDS011;43284;47.042;15.498;2022-12-18T00:45:20;16.88;;;7.07;;
57441;SDS011;43284;47.042;15.498;2022-12-18T00:47:47;15.73;;;7.00;;
57441;SDS011;43284;47.042;15.498;2022-12-18T00:50:13;17.00;;;6.97;;
57441;SDS011;43284;47.042;15.498;2022-12-18T00:52:38;17.38;;;7.88;;
57441;SDS011;43284;47.042;15.498;2022-12-18T00:55:04;19.83;;;7.75;;
57441;SDS011;43284;47.042;15.498;2022-12-18T00:57:30;16.92;;;8.13;;
57441;SDS011;43284;47.042;15.498;2022-12-18T00:59:55;18.10;;;8.40;;
57441;SDS011;43284;47.042;15.498;2022-12-18T01:02:21;19.10;;;7.82;;
57441;SDS011;43284;47.042;15.498;2022-12-18T01:04:49;17.00;;;7.22;;
57441;SDS011;43284;47.042;15.498;2022-12-18T01:07:14;16.25;;;8.05;;
57441;SDS011;43284;47.042;15.498;2022-12-18T01:09:40;13.93;;;7.30;;
57441;SDS011;43284;47.042;15.498;2022-12-18T01:12:05;15.90;;;7.22;;
57441;SDS011;43284;47.042;15.498;2022-12-18T01:14:31;17.60;;;8.05;;
57441;SDS011;43284;47.042;15.498;2022-12-18T01:16:56;15.23;;;7.38;;
57441;SDS011;43284;47.042;15.498;2022-12-18T01:19:22;17.97;;;8.13;;
57441;SDS011;43284;47.042;15.498;2022-12-18T01:21:48;16.20;;;7.55;;
57441;SDS011;43284;47.042;15.498;2022-12-18T01:24:14;19.58;;;8.65;;
57441;SDS011;43284;47.042;15.498;2022-12-18T01:26:40;18.85;;;8.38;;
57441;SDS011;43284;47.042;15.498;2022-12-18T01:29:05;18.98;;;8.20;;
57441;SDS011;43284;47.042;15.498;2022-12-18T01:31:32;19.67;;;9.13;;
57441;SDS011;43284;47.042;15.498;2022-12-18T01:34:00;22.95;;;9.32;;
57441;SDS011;43284;47.042;15.498;2022-12-18T01:36:27;20.88;;;8.38;;
57441;SDS011;43284;47.042;15.498;2022-12-18T01:38:54;20.90;;;8.32;;
57441;SDS011;43284;47.042;15.498;2022-12-18T01:41:25;15.10;;;7.50;;
57441;SDS011;43284;47.042;15.498;2022-12-18T01:47:41;27.30;;;8.83;;
57441;SDS011;43284;47.042;15.498;2022-12-18T01:55:25;15.98;;;7.20;;
57441;SDS011;43284;47.042;15.498;2022-12-18T01:57:54;16.95;;;7.70;;
57441;SDS011;43284;47.042;15.498;2022-12-18T02:00:21;24.70;;;9.32;;
57441;SDS011;43284;47.042;15.498;2022-12-18T02:02:48;24.40;;;10.27;;
57441;SDS011;43284;47.042;15.498;2022-12-18T02:05:16;21.73;;;9.55;;
57441;SDS011;43284;47.042;15.498;2022-12-18T02:08:07;24.33;;;10.13;;
57441;SDS011;43284;47.042;15.498;2022-12-18T02:13:24;26.65;;;11.55;;
57441;SDS011;43284;47.042;15.498;2022-12-18T02:16:11;25.90;;;10.87;;
57441;SDS011;43284;47.042;15.498;2022-12-18T02:18:46;26.42;;;10.65;;
57441;SDS011;43284;47.042;15.498;2022-12-18T02:24:29;27.63;;;10.97;;
57441;SDS011;43284;47.042;15.498;2022-12-18T02:27:07;31.60;;;11.63;;
57441;SDS011;43284;47.042;15.498;2022-12-18T02:29:39;35.60;;;12.73;;
57441;SDS011;43284;47.042;15.498;2022-12-18T02:32:13;29.17;;;12.55;;
57441;SDS011;43284;47.042;15.498;2022-12-18T02:34:41;35.20;;;11.97;;
57441;SDS011;43284;47.042;15.498;2022-12-18T02:37:10;25.00;;;12.07;;
57441;SDS011;43284;47.042;15.498;2022-12-18T02:39:40;30.40;;;11.93;;
57441;SDS011;43284;47.042;15.498;2022-12-18T02:42:08;25.07;;;11.73;;
57441;SDS011;43284;47.042;15.498;2022-12-18T02:44:35;22.63;;;10.37;;
57441;SDS011;43284;47.042;15.498;2022-12-18T02:47:10;23.98;;;10.70;;
57441;SDS011;43284;47.042;15.498;2022-12-18T02:49:44;24.00;;;11.23;;
57441;SDS011;43284;47.042;15.498;2022-12-18T02:52:25;25.23;;;11.43;;
57441;SDS011;43284;47.042;15.498;2022-12-18T03:00:40;25.27;;;11.57;;
57441;SDS011;43284;47.042;15.498;2022-12-18T03:03:29;32.80;;;12.93;;
57441;SDS011;43284;47.042;15.498;2022-12-18T03:09:09;31.33;;;11.60;;
57441;SDS011;43284;47.042;15.498;2022-12-18T03:11:40;33.90;;;12.20;;
57441;SDS011;43284;47.042;15.498;2022-12-18T03:14:29;32.03;;;12.37;;
57441;SDS011;43284;47.042;15.498;2022-12-18T03:16:59;31.03;;;13.20;;
57441;SDS011;43284;47.042;15.498;2022-12-18T03:19:27;30.87;;;12.40;;
57441;SDS011;43284;47.042;15.498;2022-12-18T03:21:55;32.13;;;11.73;;
57441;SDS011;43284;47.042;15.498;2022-12-18T03:24:22;28.67;;;12.07;;
57441;SDS011;43284;47.042;15.498;2022-12-18T03:26:52;33.87;;;12.30;;
57441;SDS011;43284;47.042;15.498;2022-12-18T03:29:22;33.87;;;12.20;;
57441;SDS011;43284;47.042;15.498;2022-12-18T03:31:56;32.13;;;12.47;;
57441;SDS011;43284;47.042;15.498;2022-12-18T03:34:30;28.87;;;11.93;;
57441;SDS011;43284;47.042;15.498;2022-12-18T03:36:58;28.73;;;11.80;;
57441;SDS011;43284;47.042;15.498;2022-12-18T03:39:24;32.13;;;12.37;;
57441;SDS011;43284;47.042;15.498;2022-12-18T03:41:55;29.10;;;12.33;;
57441;SDS011;43284;47.042;15.498;2022-12-18T03:47:16;33.60;;;12.23;;
57441;SDS011;43284;47.042;15.498;2022-12-18T03:55:40;32.40;;;10.87;;
57441;SDS011;43284;47.042;15.498;2022-12-18T03:58:07;31.03;;;11.17;;
57441;SDS011;43284;47.042;15.498;2022-12-18T04:00:34;30.00;;;11.87;;
57441;SDS011;43284;47.042;15.498;2022-12-18T04:03:00;29.23;;;11.80;;
57441;SDS011;43284;47.042;15.498;2022-12-18T04:05:27;30.27;;;11.93;;
57441;SDS011;43284;47.042;15.498;2022-12-18T04:07:55;30.83;;;12.33;;
57441;SDS011;43284;47.042;15.498;2022-12-18T04:10:21;29.43;;;12.33;;
57441;SDS011;43284;47.042;15.498;2022-12-18T04:12:47;30.77;;;13.57;;
57441;SDS011;43284;47.042;15.498;2022-12-18T04:15:13;31.40;;;13.00;;
57441;SDS011;43284;47.042;15.498;2022-12-18T04:17:39;30.83;;;12.97;;
57441;SDS011;43284;47.042;15.498;2022-12-18T04:20:12;31.52;;;12.30;;
57441;SDS011;43284;47.042;15.498;2022-12-18T04:22:37;29.80;;;12.10;;
57441;SDS011;43284;47.042;15.498;2022-12-18T04:25:03;39.20;;;13.37;;
57441;SDS011;43284;47.042;15.498;2022-12-18T04:27:28;37.60;;;15.37;;
57441;SDS011;43284;47.042;15.498;2022-12-18T04:29:54;36.30;;;15.30;;
57441;SDS011;43284;47.042;15.498;2022-12-18T04:32:19;32.43;;;14.57;;
57441;SDS011;43284;47.042;15.498;2022-12-18T04:34:45;34.87;;;13.87;;
57441;SDS011;43284;47.042;15.498;2022-12-18T04:37:11;30.87;;;13.07;;
57441;SDS011;43284;47.042;15.498;2022-12-18T04:39:36;34.17;;;14.27;;
57441;SDS011;43284;47.042;15.498;2022-12-18T04:42:02;32.87;;;13.40;;
57441;SDS011;43284;47.042;15.498;2022-12-18T04:44:27;32.73;;;12.00;;
57441;SDS011;43284;47.042;15.498;2022-12-18T04:46:53;33.67;;;14.17;;
57441;SDS011;43284;47.042;15.498;2022-12-18T04:49:18;29.53;;;11.90;;
57441;SDS011;43284;47.042;15.498;2022-12-18T04:51:44;36.80;;;13.03;;
57441;SDS011;43284;47.042;15.498;2022-12-18T04:54:09;38.47;;;16.27;;
57441;SDS011;43284;47.042;15.498;2022-12-18T04:56:35;44.60;;;15.27;;
57441;SDS011;43284;47.042;15.498;2022-12-18T04:59:01;37.20;;;14.33;;
57441;SDS011;43284;47.042;15.498;2022-12-18T05:01:26;42.73;;;14.77;;
57441;SDS011;43284;47.042;15.498;2022-12-18T05:03:52;34.27;;;13.53;;
57441;SDS011;43284;47.042;15.498;2022-12-18T05:06:17;39.10;;;14.43;;
57441;SDS011;43284;47.042;15.498;2022-12-18T05:08:43;33.47;;;13.40;;
57441;SDS011;43284;47.042;15.498;2022-12-18T05:11:09;45.33;;;16.23;;
57441;SDS011;43284;47.042;15.498;2022-12-18T05:13:39;44.93;;;16.10;;
57441;SDS011;43284;47.042;15.498;2022-12-18T05:16:04;57.77;;;17.30;;
57441;SDS011;43284;47.042;15.498;2022-12-18T05:18:30;45.30;;;16.83;;
57441;SDS011;43284;47.042;15.498;2022-12-18T05:20:56;56.40;;;17.47;;
57441;SDS011;43284;47.042;15.498;2022-12-18T05:23:22;64.13;;;18.03;;
57441;SDS011;43284;47.042;15.498;2022-12-18T05:25:56;48.90;;;18.23;;
57441;SDS011;43284;47.042;15.498;2022-12-18T05:28:23;50.30;;;17.87;;
57441;SDS011;43284;47.042;15.498;2022-12-18T05:30:51;55.83;;;18.37;;
57441;SDS011;43284;47.042;15.498;2022-12-18T05:33:18;60.10;;;18.57;;
57441;SDS011;43284;47.042;15.498;2022-12-18T05:35:49;68.13;;;20.30;;
57441;SDS011;43284;47.042;15.498;2022-12-18T05:38:22;47.23;;;17.90;;
57441;SDS011;43284;47.042;15.498;2022-12-18T05:40:49;67.90;;;17.43;;
57441;SDS011;43284;47.042;15.498;2022-12-18T05:43:15;66.40;;;19.23;;
57441;SDS011;43284;47.042;15.498;2022-12-18T05:45:41;49.53;;;16.40;;
57441;SDS011;43284;47.042;15.498;2022-12-18T05:48:07;51.33;;;16.43;;
57441;SDS011;43284;47.042;15.498;2022-12-18T05:50:37;45.70;;;17.77;;
57441;SDS011;43284;47.042;15.498;2022-12-18T05:53:05;48.97;;;17.33;;
57441;SDS011;43284;47.042;15.498;2022-12-18T05:55:37;54.63;;;17.60;;
57441;SDS011;43284;47.042;15.498;2022-12-18T05:58:05;64.83;;;18.50;;
57441;SDS011;43284;47.042;15.498;2022-12-18T06:00:32;45.60;;;17.47;;
57441;SDS011;43284;47.042;15.498;2022-12-18T06:03:00;51.80;;;17.77;;
57441;SDS011;43284;47.042;15.498;2022-12-18T06:05:25;53.53;;;16.87;;
57441;SDS011;43284;47.042;15.498;2022-12-18T06:07:51;53.43;;;18.50;;
57441;SDS011;43284;47.042;15.498;2022-12-18T06:10:16;45.27;;;15.47;;
57441;SDS011;43284;47.042;15.498;2022-12-18T06:12:42;45.77;;;16.20;;
57441;SDS011;43284;47.042;15.498;2022-12-18T06:15:08;46.33;;;18.53;;
57441;SDS011;43284;47.042;15.498;2022-12-18T06:17:33;41.23;;;16.73;;
57441;SDS011;43284;47.042;15.498;2022-12-18T06:19:59;51.50;;;17.90;;
57441;SDS011;43284;47.042;15.498;2022-12-18T06:22:26;43.67;;;17.50;;
57441;SDS011;43284;47.042;15.498;2022-12-18T06:24:52;38.93;;;16.73;;
57441;SDS011;43284;47.042;15.498;2022-12-18T06:27:17;44.43;;;17.03;;
57441;SDS011;43284;47.042;15.498;2022-12-18T06:29:43;51.43;;;16.77;;
57441;SDS011;43284;47.042;15.498;2022-12-18T06:32:08;42.40;;;16.57;;
57441;SDS011;43284;47.042;15.498;2022-12-18T06:34:34;43.13;;;17.53;;
57441;SDS011;43284;47.042;15.498;2022-12-18T06:37:02;44.87;;;17.13;;
57441;SDS011;43284;47.042;15.498;2022-12-18T06:39:28;47.90;;;17.60;;
57441;SDS011;43284;47.042;15.498;2022-12-18T06:41:54;37.87;;;16.10;;
57441;SDS011;43284;47.042;15.498;2022-12-18T06:44:19;43.37;;;14.87;;
57441;SDS011;43284;47.042;15.498;2022-12-18T06:46:45;44.77;;;16.50;;
57441;SDS011;43284;47.042;15.498;2022-12-18T06:49:10;35.90;;;15.10;;
57441;SDS011;43284;47.042;15.498;2022-12-18T06:51:36;36.73;;;15.90;;
57441;SDS011;43284;47.042;15.498;2022-12-18T06:54:01;42.00;;;16.63;;
57441;SDS011;43284;47.042;15.498;2022-12-18T06:56:27;37.90;;;15.70;;
57441;SDS011;43284;47.042;15.498;2022-12-18T06:58:53;35.53;;;14.90;;
57441;SDS011;43284;47.042;15.498;2022-12-18T07:01:20;37.33;;;15.13;;
57441;SDS011;43284;47.042;15.498;2022-12-18T07:03:46;35.43;;;15.03;;
57441;SDS011;43284;47.042;15.498;2022-12-18T07:06:16;30.90;;;12.93;;
57441;SDS011;43284;47.042;15.498;2022-12-18T07:08:43;30.20;;;12.80;;
57441;SDS011;43284;47.042;15.498;2022-12-18T07:11:10;33.60;;;14.63;;
57441;SDS011;43284;47.042;15.498;2022-12-18T07:13:35;42.13;;;16.40;;
57441;SDS011;43284;47.042;15.498;2022-12-18T07:16:08;41.17;;;16.00;;
57441;SDS011;43284;47.042;15.498;2022-12-18T07:18:40;39.47;;;15.80;;
57441;SDS011;43284;47.042;15.498;2022-12-18T07:21:07;43.47;;;17.40;;
57441;SDS011;43284;47.042;15.498;2022-12-18T07:23:34;40.37;;;16.70;;
57441;SDS011;43284;47.042;15.498;2022-12-18T07:26:04;42.70;;;17.17;;
57441;SDS011;43284;47.042;15.498;2022-12-18T07:31:07;34.67;;;14.60;;
57441;SDS011;43284;47.042;15.498;2022-12-18T07:33:34;49.43;;;17.30;;
57441;SDS011;43284;47.042;15.498;2022-12-18T07:36:01;44.60;;;18.30;;
57441;SDS011;43284;47.042;15.498;2022-12-18T07:38:28;38.13;;;15.33;;
57441;SDS011;43284;47.042;15.498;2022-12-18T07:40:54;36.07;;;14.93;;
57441;SDS011;43284;47.042;15.498;2022-12-18T07:43:20;41.17;;;16.50;;
57441;SDS011;43284;47.042;15.498;2022-12-18T07:45:45;46.25;;;17.75;;
57441;SDS011;43284;47.042;15.498;2022-12-18T07:48:14;61.43;;;21.67;;
57441;SDS011;43284;47.042;15.498;2022-12-18T07:50:39;48.72;;;19.60;;
57441;SDS011;43284;47.042;15.498;2022-12-18T07:53:05;45.38;;;18.33;;
57441;SDS011;43284;47.042;15.498;2022-12-18T07:55:31;111.40;;;39.22;;
57441;SDS011;43284;47.042;15.498;2022-12-18T07:57:57;70.57;;;24.85;;
57441;SDS011;43284;47.042;15.498;2022-12-18T08:00:25;51.08;;;20.15;;
57441;SDS011;43284;47.042;15.498;2022-12-18T08:02:51;73.85;;;26.13;;
57441;SDS011;43284;47.042;15.498;2022-12-18T08:05:16;71.35;;;25.20;;
57441;SDS011;43284;47.042;15.498;2022-12-18T08:07:42;42.75;;;16.85;;
57441;SDS011;43284;47.042;15.498;2022-12-18T08:10:08;46.55;;;18.25;;
57441;SDS011;43284;47.042;15.498;2022-12-18T08:12:33;47.25;;;18.83;;
57441;SDS011;43284;47.042;15.498;2022-12-18T08:14:59;62.47;;;24.30;;
57441;SDS011;43284;47.042;15.498;2022-12-18T08:17:24;56.75;;;22.83;;
57441;SDS011;43284;47.042;15.498;2022-12-18T08:19:50;38.15;;;16.83;;
57441;SDS011;43284;47.042;15.498;2022-12-18T08:22:15;34.13;;;14.95;;
57441;SDS011;43284;47.042;15.498;2022-12-18T08:24:41;30.50;;;14.00;;
57441;SDS011;43284;47.042;15.498;2022-12-18T08:27:06;32.00;;;14.23;;
57441;SDS011;43284;47.042;15.498;2022-12-18T08:29:32;34.03;;;15.00;;
57441;SDS011;43284;47.042;15.498;2022-12-18T08:31:58;37.40;;;14.90;;
57441;SDS011;43284;47.042;15.498;2022-12-18T08:34:24;33.80;;;15.10;;
57441;SDS011;43284;47.042;15.498;2022-12-18T08:36:57;33.75;;;14.02;;
57441;SDS011;43284;47.042;15.498;2022-12-18T08:39:22;29.33;;;12.23;;
57441;SDS011;43284;47.042;15.498;2022-12-18T08:41:47;28.65;;;12.63;;
57441;SDS011;43284;47.042;15.498;2022-12-18T08:44:33;23.17;;;11.35;;
57441;SDS011;43284;47.042;15.498;2022-12-18T08:47:05;30.15;;;12.48;;
57441;SDS011;43284;47.042;15.498;2022-12-18T08:49:31;26.00;;;11.35;;
57441;SDS011;43284;47.042;15.498;2022-12-18T08:51:57;25.63;;;11.60;;
57441;SDS011;43284;47.042;15.498;2022-12-18T08:54:22;24.60;;;11.25;;
57441;SDS011;43284;47.042;15.498;2022-12-18T08:56:49;24.70;;;11.15;;
57441;SDS011;43284;47.042;15.498;2022-12-18T08:59:15;32.97;;;11.98;;
57441;SDS011;43284;47.042;15.498;2022-12-18T09:01:41;26.88;;;11.00;;
57441;SDS011;43284;47.042;15.498;2022-12-18T09:04:08;24.08;;;11.93;;
57441;SDS011;43284;47.042;15.498;2022-12-18T09:06:34;28.88;;;13.20;;
57441;SDS011;43284;47.042;15.498;2022-12-18T09:09:00;32.50;;;13.35;;
57441;SDS011;43284;47.042;15.498;2022-12-18T09:11:26;27.65;;;11.93;;
57441;SDS011;43284;47.042;15.498;2022-12-18T09:13:53;30.92;;;11.77;;
57441;SDS011;43284;47.042;15.498;2022-12-18T09:16:20;27.17;;;10.45;;
57441;SDS011;43284;47.042;15.498;2022-12-18T09:18:47;29.17;;;11.23;;
57441;SDS011;43284;47.042;15.498;2022-12-18T09:21:14;29.95;;;12.70;;
57441;SDS011;43284;47.042;15.498;2022-12-18T09:23:41;29.73;;;13.13;;
57441;SDS011;43284;47.042;15.498;2022-12-18T09:26:06;29.65;;;12.43;;
57441;SDS011;43284;47.042;15.498;2022-12-18T09:28:32;32.70;;;13.35;;
57441;SDS011;43284;47.042;15.498;2022-12-18T09:30:58;33.90;;;13.60;;
57441;SDS011;43284;47.042;15.498;2022-12-18T09:33:23;35.08;;;14.25;;
57441;SDS011;43284;47.042;15.498;2022-12-18T09:35:49;29.15;;;12.65;;
57441;SDS011;43284;47.042;15.498;2022-12-18T09:38:16;35.45;;;14.70;;
57441;SDS011;43284;47.042;15.498;2022-12-18T09:40:51;39.28;;;15.93;;
57441;SDS011;43284;47.042;15.498;2022-12-18T09:43:26;36.70;;;14.48;;
57441;SDS011;43284;47.042;15.498;2022-12-18T09:46:01;36.92;;;14.48;;
57441;SDS011;43284;47.042;15.498;2022-12-18T09:48:32;42.70;;;16.63;;
57441;SDS011;43284;47.042;15.498;2022-12-18T09:53:48;38.47;;;15.40;;
57441;SDS011;43284;47.042;15.498;2022-12-18T09:56:19;39.92;;;15.57;;
57441;SDS011;43284;47.042;15.498;2022-12-18T09:59:15;40.20;;;16.55;;
57441;SDS011;43284;47.042;15.498;2022-12-18T10:01:43;34.08;;;15.18;;
57441;SDS011;43284;47.042;15.498;2022-12-18T10:04:08;38.45;;;15.98;;
57441;SDS011;43284;47.042;15.498;2022-12-18T10:09:20;40.15;;;15.18;;
57441;SDS011;43284;47.042;15.498;2022-12-18T10:14:23;39.80;;;16.27;;
57441;SDS011;43284;47.042;15.498;2022-12-18T10:17:12;40.03;;;16.55;;
57441;SDS011;43284;47.042;15.498;2022-12-18T10:19:55;34.30;;;15.43;;
57441;SDS011;43284;47.042;15.498;2022-12-18T10:27:41;43.40;;;16.65;;
57441;SDS011;43284;47.042;15.498;2022-12-18T10:30:13;37.97;;;16.02;;
57441;SDS011;43284;47.042;15.498;2022-12-18T10:32:41;40.03;;;17.27;;
57441;SDS011;43284;47.042;15.498;2022-12-18T10:38:50;44.67;;;18.48;;
57441;SDS011;43284;47.042;15.498;2022-12-18T10:43:23;46.75;;;19.23;;
57441;SDS011;43284;47.042;15.498;2022-12-18T10:46:13;53.05;;;20.13;;
57441;SDS011;43284;47.042;15.498;2022-12-18T10:51:24;47.58;;;19.35;;
57441;SDS011;43284;47.042;15.498;2022-12-18T10:53:51;48.75;;;19.58;;
57441;SDS011;43284;47.042;15.498;2022-12-18T10:56:22;53.25;;;19.85;;
57441;SDS011;43284;47.042;15.498;2022-12-18T10:58:59;52.92;;;21.13;;
57441;SDS011;43284;47.042;15.498;2022-12-18T11:01:27;51.72;;;20.38;;
57441;SDS011;43284;47.042;15.498;2022-12-18T11:06:22;56.20;;;21.63;;
57441;SDS011;43284;47.042;15.498;2022-12-18T11:12:03;50.45;;;18.63;;
57441;SDS011;43284;47.042;15.498;2022-12-18T11:17:43;45.90;;;19.13;;
57441;SDS011;43284;47.042;15.498;2022-12-18T11:20:06;48.83;;;17.98;;
57441;SDS011;43284;47.042;15.498;2022-12-18T11:22:58;52.70;;;18.98;;
57441;SDS011;43284;47.042;15.498;2022-12-18T11:25:29;47.47;;;18.38;;
57441;SDS011;43284;47.042;15.498;2022-12-18T11:28:08;53.05;;;21.40;;
57441;SDS011;43284;47.042;15.498;2022-12-18T11:33:52;46.30;;;19.90;;
57441;SDS011;43284;47.042;15.498;2022-12-18T11:36:22;51.08;;;19.63;;
57441;SDS011;43284;47.042;15.498;2022-12-18T11:38:48;53.50;;;19.80;;
57441;SDS011;43284;47.042;15.498;2022-12-18T11:41:37;57.72;;;22.30;;
57441;SDS011;43284;47.042;15.498;2022-12-18T11:44:35;60.28;;;22.42;;
57441;SDS011;43284;47.042;15.498;2022-12-18T11:47:15;50.88;;;19.20;;
57441;SDS011;43284;47.042;15.498;2022-12-18T11:50:02;56.53;;;20.38;;
57441;SDS011;43284;47.042;15.498;2022-12-18T11:52:40;52.67;;;19.65;;
57441;SDS011;43284;47.042;15.498;2022-12-18T11:55:13;54.30;;;19.55;;
57441;SDS011;43284;47.042;15.498;2022-12-18T12:00:26;57.38;;;21.35;;
57441;SDS011;43284;47.042;15.498;2022-12-18T12:22:10;51.88;;;18.08;;
57441;SDS011;43284;47.042;15.498;2022-12-18T12:27:48;59.30;;;18.50;;
57441;SDS011;43284;47.042;15.498;2022-12-18T12:38:49;54.10;;;19.35;;
57441;SDS011;43284;47.042;15.498;2022-12-18T12:41:21;64.75;;;21.25;;
57441;SDS011;43284;47.042;15.498;2022-12-18T12:44:12;66.13;;;22.38;;
57441;SDS011;43284;47.042;15.498;2022-12-18T12:46:41;61.88;;;19.67;;
57441;SDS011;43284;47.042;15.498;2022-12-18T12:49:12;63.38;;;19.90;;
57441;SDS011;43284;47.042;15.498;2022-12-18T12:51:45;51.53;;;18.55;;
57441;SDS011;43284;47.042;15.498;2022-12-18T12:54:18;57.08;;;19.15;;
57441;SDS011;43284;47.042;15.498;2022-12-18T12:59:40;62.72;;;21.20;;
57441;SDS011;43284;47.042;15.498;2022-12-18T13:05:25;65.35;;;21.80;;
57441;SDS011;43284;47.042;15.498;2022-12-18T13:08:02;65.75;;;20.23;;
57441;SDS011;43284;47.042;15.498;2022-12-18T13:10:32;63.00;;;21.38;;
57441;SDS011;43284;47.042;15.498;2022-12-18T13:20:39;56.55;;;19.05;;
57441;SDS011;43284;47.042;15.498;2022-12-18T13:25:51;56.45;;;20.33;;
57441;SDS011;43284;47.042;15.498;2022-12-18T13:36:45;65.05;;;21.85;;
57441;SDS011;43284;47.042;15.498;2022-12-18T13:39:20;61.42;;;23.00;;
57441;SDS011;43284;47.042;15.498;2022-12-18T13:41:53;62.05;;;20.60;;
57441;SDS011;43284;47.042;15.498;2022-12-18T13:44:58;47.65;;;17.80;;
57441;SDS011;43284;47.042;15.498;2022-12-18T13:47:34;47.55;;;17.95;;
57441;SDS011;43284;47.042;15.498;2022-12-18T13:50:47;47.75;;;16.63;;
57441;SDS011;43284;47.042;15.498;2022-12-18T13:52:54;53.05;;;17.85;;
57441;SDS011;43284;47.042;15.498;2022-12-18T13:55:20;50.50;;;19.13;;
57441;SDS011;43284;47.042;15.498;2022-12-18T13:57:47;41.72;;;17.48;;
57441;SDS011;43284;47.042;15.498;2022-12-18T14:02:47;49.60;;;18.23;;
57441;SDS011;43284;47.042;15.498;2022-12-18T14:05:23;52.92;;;18.48;;
57441;SDS011;43284;47.042;15.498;2022-12-18T14:07:51;46.47;;;17.50;;
57441;SDS011;43284;47.042;15.498;2022-12-18T14:10:18;43.38;;;15.52;;
57441;SDS011;43284;47.042;15.498;2022-12-18T14:12:45;47.80;;;17.13;;
57441;SDS011;43284;47.042;15.498;2022-12-18T14:17:55;50.50;;;18.25;;
57441;SDS011;43284;47.042;15.498;2022-12-18T14:20:24;44.78;;;16.08;;
57441;SDS011;43284;47.042;15.498;2022-12-18T14:22:51;43.15;;;17.85;;
57441;SDS011;43284;47.042;15.498;2022-12-18T14:27:49;53.40;;;17.45;;
57441;SDS011;43284;47.042;15.498;2022-12-18T14:30:31;44.80;;;17.95;;
57441;SDS011;43284;47.042;15.498;2022-12-18T14:33:01;44.03;;;15.37;;
57441;SDS011;43284;47.042;15.498;2022-12-18T14:35:35;41.15;;;16.13;;
57441;SDS011;43284;47.042;15.498;2022-12-18T14:38:09;45.53;;;17.58;;
57441;SDS011;43284;47.042;15.498;2022-12-18T14:40:42;41.63;;;16.00;;
57441;SDS011;43284;47.042;15.498;2022-12-18T14:43:10;47.30;;;17.48;;
57441;SDS011;43284;47.042;15.498;2022-12-18T14:45:39;48.20;;;17.58;;
57441;SDS011;43284;47.042;15.498;2022-12-18T14:48:07;44.53;;;16.15;;
57441;SDS011;43284;47.042;15.498;2022-12-18T14:50:37;40.42;;;14.65;;
57441;SDS011;43284;47.042;15.498;2022-12-18T14:53:03;51.40;;;17.67;;
57441;SDS011;43284;47.042;15.498;2022-12-18T14:55:48;43.40;;;15.70;;
57441;SDS011;43284;47.042;15.498;2022-12-18T14:58:15;45.35;;;16.90;;
57441;SDS011;43284;47.042;15.498;2022-12-18T15:00:42;39.47;;;16.77;;
57441;SDS011;43284;47.042;15.498;2022-12-18T15:03:08;49.15;;;17.23;;
57441;SDS011;43284;47.042;15.498;2022-12-18T15:05:35;47.25;;;17.77;;
57441;SDS011;43284;47.042;15.498;2022-12-18T15:08:00;49.08;;;17.58;;
57441;SDS011;43284;47.042;15.498;2022-12-18T15:10:33;50.55;;;17.83;;
57441;SDS011;43284;47.042;15.498;2022-12-18T15:23:21;45.95;;;16.83;;
57441;SDS011;43284;47.042;15.498;2022-12-18T15:25:55;56.92;;;18.02;;
57441;SDS011;43284;47.042;15.498;2022-12-18T15:28:27;48.20;;;18.10;;
57441;SDS011;43284;47.042;15.498;2022-12-18T15:31:21;47.90;;;16.77;;
57441;SDS011;43284;47.042;15.498;2022-12-18T15:36:24;43.25;;;16.02;;
57441;SDS011;43284;47.042;15.498;2022-12-18T15:38:50;43.08;;;17.55;;
57441;SDS011;43284;47.042;15.498;2022-12-18T15:41:18;42.78;;;17.33;;
57441;SDS011;43284;47.042;15.498;2022-12-18T15:43:46;47.95;;;16.85;;
57441;SDS011;43284;47.042;15.498;2022-12-18T15:46:14;49.00;;;18.27;;
57441;SDS011;43284;47.042;15.498;2022-12-18T15:48:43;57.20;;;18.15;;
57441;SDS011;43284;47.042;15.498;2022-12-18T15:51:20;53.58;;;19.98;;
57441;SDS011;43284;47.042;15.498;2022-12-18T15:53:55;50.05;;;17.88;;
57441;SDS011;43284;47.042;15.498;2022-12-18T15:56:23;48.58;;;17.65;;
57441;SDS011;43284;47.042;15.498;2022-12-18T15:59:11;50.25;;;17.98;;
57441;SDS011;43284;47.042;15.498;2022-12-18T16:01:39;47.05;;;17.65;;
57441;SDS011;43284;47.042;15.498;2022-12-18T16:04:06;54.85;;;19.17;;
57441;SDS011;43284;47.042;15.498;2022-12-18T16:06:32;47.42;;;17.80;;
57441;SDS011;43284;47.042;15.498;2022-12-18T16:08:57;58.60;;;19.50;;
57441;SDS011;43284;47.042;15.498;2022-12-18T16:11:24;52.63;;;18.45;;
57441;SDS011;43284;47.042;15.498;2022-12-18T16:14:25;52.28;;;19.33;;
57441;SDS011;43284;47.042;15.498;2022-12-18T16:16:54;50.25;;;20.00;;
57441;SDS011;43284;47.042;15.498;2022-12-18T16:19:21;55.45;;;20.13;;
57441;SDS011;43284;47.042;15.498;2022-12-18T16:21:47;57.60;;;20.23;;
57441;SDS011;43284;47.042;15.498;2022-12-18T16:24:19;50.78;;;19.88;;
57441;SDS011;43284;47.042;15.498;2022-12-18T16:26:49;55.58;;;19.85;;
57441;SDS011;43284;47.042;15.498;2022-12-18T16:29:19;55.95;;;20.83;;
57441;SDS011;43284;47.042;15.498;2022-12-18T16:31:50;54.10;;;20.17;;
57441;SDS011;43284;47.042;15.498;2022-12-18T16:36:51;63.42;;;21.30;;
57441;SDS011;43284;47.042;15.498;2022-12-18T16:39:18;57.08;;;20.35;;
57441;SDS011;43284;47.042;15.498;2022-12-18T16:41:44;57.53;;;21.75;;
57441;SDS011;43284;47.042;15.498;2022-12-18T16:44:11;60.22;;;21.58;;
57441;SDS011;43284;47.042;15.498;2022-12-18T16:46:37;59.65;;;20.85;;
57441;SDS011;43284;47.042;15.498;2022-12-18T16:49:04;56.28;;;21.92;;
57441;SDS011;43284;47.042;15.498;2022-12-18T16:51:29;58.20;;;21.77;;
57441;SDS011;43284;47.042;15.498;2022-12-18T16:53:55;58.55;;;22.92;;